Aullville, Missouri
Current Conditions -  °F | °C
As of 1:55 PM on Sunday 23 Nov 2014 (Local Time) from KRCM Reporting Station
Overcast Overcast  
Wind Chill: 13°   Ceiling: 300
Heat Index: 13°   Visibility: 10mi
Dew Point: 12°   Wind: 5mph
Humidity: 94%   Direction: 160°SSE
Pressure: 29.35"   Gusts: NA
Location:  39.0541°N, 93.6618°W
Report Text: KRCM 231955Z AUTO 16004KT 10SM BKN003 BKN016 OVC024 13/12 A2935 RMK AO2
Loading
Personal Weather Stations






























Interactive Weather Map New forecast layout! Learn more

10-Day Weather Forecast

Advertisements
Track Severe Weather on mobile